sensor_id;sensor_type;location;lat;lon;timestamp;temperature;humidity
40848;DHT22;26570;50.962;5.340;2023-04-22T00:04:27;8.10;99.90
40848;DHT22;26570;50.962;5.340;2023-04-22T00:07:14;8.20;99.90
40848;DHT22;26570;50.962;5.340;2023-04-22T00:10:21;8.10;99.90
40848;DHT22;26570;50.962;5.340;2023-04-22T00:13:07;8.20;99.90
40848;DHT22;26570;50.962;5.340;2023-04-22T00:15:52;8.20;99.90
40848;DHT22;26570;50.962;5.340;2023-04-22T00:21:24;8.30;99.90
40848;DHT22;26570;50.962;5.340;2023-04-22T00:24:33;8.40;99.90
40848;DHT22;26570;50.962;5.340;2023-04-22T00:27:18;8.40;99.90
40848;DHT22;26570;50.962;5.340;2023-04-22T00:30:04;8.50;99.90
40848;DHT22;26570;50.962;5.340;2023-04-22T00:33:12;8.50;99.90
40848;DHT22;26570;50.962;5.340;2023-04-22T00:36:20;8.70;99.90
40848;DHT22;26570;50.962;5.340;2023-04-22T00:39:05;8.50;99.90
40848;DHT22;26570;50.962;5.340;2023-04-22T00:41:51;8.50;99.90
40848;DHT22;26570;50.962;5.340;2023-04-22T00:44:37;8.50;99.90
40848;DHT22;26570;50.962;5.340;2023-04-22T00:47:25;8.60;99.90
40848;DHT22;26570;50.962;5.340;2023-04-22T00:50:11;8.50;99.90
40848;DHT22;26570;50.962;5.340;2023-04-22T00:52:57;8.60;99.90
40848;DHT22;26570;50.962;5.340;2023-04-22T00:55:42;8.60;99.90
40848;DHT22;26570;50.962;5.340;2023-04-22T00:58:28;8.60;99.90
40848;DHT22;26570;50.962;5.340;2023-04-22T01:01:14;8.70;99.90
40848;DHT22;26570;50.962;5.340;2023-04-22T01:04:01;8.80;99.90
40848;DHT22;26570;50.962;5.340;2023-04-22T01:06:48;8.70;99.90
40848;DHT22;26570;50.962;5.340;2023-04-22T01:09:58;8.60;99.90
40848;DHT22;26570;50.962;5.340;2023-04-22T01:12:43;8.50;99.90
40848;DHT22;26570;50.962;5.340;2023-04-22T01:15:28;8.60;99.90
40848;DHT22;26570;50.962;5.340;2023-04-22T01:18:14;8.70;99.90
40848;DHT22;26570;50.962;5.340;2023-04-22T01:21:00;8.70;99.90
40848;DHT22;26570;50.962;5.340;2023-04-22T01:23:46;8.80;99.90
40848;DHT22;26570;50.962;5.340;2023-04-22T01:26:32;8.70;99.90
40848;DHT22;26570;50.962;5.340;2023-04-22T01:29:17;8.70;99.90
40848;DHT22;26570;50.962;5.340;2023-04-22T01:32:25;8.60;99.90
40848;DHT22;26570;50.962;5.340;2023-04-22T01:35:13;8.60;99.90
40848;DHT22;26570;50.962;5.340;2023-04-22T01:37:59;8.70;99.90
40848;DHT22;26570;50.962;5.340;2023-04-22T01:41:07;8.60;99.90
40848;DHT22;26570;50.962;5.340;2023-04-22T01:44:15;8.60;99.90
40848;DHT22;26570;50.962;5.340;2023-04-22T01:47:00;8.80;99.90
40848;DHT22;26570;50.962;5.340;2023-04-22T01:49:45;8.70;99.90
40848;DHT22;26570;50.962;5.340;2023-04-22T01:52:30;8.80;99.90
40848;DHT22;26570;50.962;5.340;2023-04-22T01:55:17;8.70;99.90
40848;DHT22;26570;50.962;5.340;2023-04-22T01:58:28;8.70;99.90
40848;DHT22;26570;50.962;5.340;2023-04-22T02:01:36;8.60;99.90
40848;DHT22;26570;50.962;5.340;2023-04-22T02:04:24;8.60;99.90
40848;DHT22;26570;50.962;5.340;2023-04-22T02:07:32;8.70;99.90
40848;DHT22;26570;50.962;5.340;2023-04-22T02:10:40;8.80;99.90
40848;DHT22;26570;50.962;5.340;2023-04-22T02:13:32;8.80;99.90
40848;DHT22;26570;50.962;5.340;2023-04-22T02:16:18;8.80;99.90
40848;DHT22;26570;50.962;5.340;2023-04-22T02:19:26;9.00;99.90
40848;DHT22;26570;50.962;5.340;2023-04-22T02:22:34;8.90;99.90
40848;DHT22;26570;50.962;5.340;2023-04-22T02:25:20;8.90;99.90
40848;DHT22;26570;50.962;5.340;2023-04-22T02:28:05;8.80;99.90
40848;DHT22;26570;50.962;5.340;2023-04-22T02:31:13;8.70;99.90
40848;DHT22;26570;50.962;5.340;2023-04-22T02:33:58;8.70;99.90
40848;DHT22;26570;50.962;5.340;2023-04-22T02:36:43;8.70;99.90
40848;DHT22;26570;50.962;5.340;2023-04-22T02:39:29;8.80;99.90
40848;DHT22;26570;50.962;5.340;2023-04-22T02:42:14;8.70;99.90
40848;DHT22;26570;50.962;5.340;2023-04-22T02:44:59;8.70;99.90
40848;DHT22;26570;50.962;5.340;2023-04-22T02:47:45;8.70;99.90
40848;DHT22;26570;50.962;5.340;2023-04-22T02:50:53;8.70;99.90
40848;DHT22;26570;50.962;5.340;2023-04-22T02:54:00;8.70;99.90
40848;DHT22;26570;50.962;5.340;2023-04-22T02:56:46;8.90;99.90
40848;DHT22;26570;50.962;5.340;2023-04-22T02:59:33;8.90;99.90
40848;DHT22;26570;50.962;5.340;2023-04-22T03:02:40;8.90;99.90
40848;DHT22;26570;50.962;5.340;2023-04-22T03:05:26;8.80;99.90
40848;DHT22;26570;50.962;5.340;2023-04-22T03:08:11;8.80;99.90
40848;DHT22;26570;50.962;5.340;2023-04-22T03:10:57;9.00;99.90
40848;DHT22;26570;50.962;5.340;2023-04-22T03:13:43;8.90;99.90
40848;DHT22;26570;50.962;5.340;2023-04-22T03:16:28;8.90;99.90
40848;DHT22;26570;50.962;5.340;2023-04-22T03:19:14;8.90;99.90
40848;DHT22;26570;50.962;5.340;2023-04-22T03:22:23;8.80;99.90
40848;DHT22;26570;50.962;5.340;2023-04-22T03:25:10;8.90;99.90
40848;DHT22;26570;50.962;5.340;2023-04-22T03:27:55;8.90;99.90
40848;DHT22;26570;50.962;5.340;2023-04-22T03:31:03;8.90;99.90
40848;DHT22;26570;50.962;5.340;2023-04-22T03:33:49;8.90;99.90
40848;DHT22;26570;50.962;5.340;2023-04-22T03:36:34;8.80;99.90
40848;DHT22;26570;50.962;5.340;2023-04-22T03:39:47;8.70;99.90
40848;DHT22;26570;50.962;5.340;2023-04-22T03:42:33;8.60;99.90
40848;DHT22;26570;50.962;5.340;2023-04-22T03:45:19;8.80;99.90
40848;DHT22;26570;50.962;5.340;2023-04-22T03:48:04;8.80;99.90
40848;DHT22;26570;50.962;5.340;2023-04-22T03:50:50;8.80;99.90
40848;DHT22;26570;50.962;5.340;2023-04-22T03:53:35;8.90;99.90
40848;DHT22;26570;50.962;5.340;2023-04-22T03:56:43;9.00;99.90
40848;DHT22;26570;50.962;5.340;2023-04-22T03:59:29;8.90;99.90
40848;DHT22;26570;50.962;5.340;2023-04-22T04:02:15;8.80;99.90
40848;DHT22;26570;50.962;5.340;2023-04-22T04:05:00;8.80;99.90
40848;DHT22;26570;50.962;5.340;2023-04-22T04:07:45;8.70;99.90
40848;DHT22;26570;50.962;5.340;2023-04-22T04:10:31;8.70;99.90
40848;DHT22;26570;50.962;5.340;2023-04-22T04:13:16;8.70;99.90
40848;DHT22;26570;50.962;5.340;2023-04-22T04:16:24;8.70;99.90
40848;DHT22;26570;50.962;5.340;2023-04-22T04:19:10;8.70;99.90
40848;DHT22;26570;50.962;5.340;2023-04-22T04:21:55;8.80;99.90
40848;DHT22;26570;50.962;5.340;2023-04-22T04:24:40;8.70;99.90
40848;DHT22;26570;50.962;5.340;2023-04-22T04:27:26;8.80;99.90
40848;DHT22;26570;50.962;5.340;2023-04-22T04:30:12;8.80;99.90
40848;DHT22;26570;50.962;5.340;2023-04-22T04:33:20;8.80;99.90
40848;DHT22;26570;50.962;5.340;2023-04-22T04:36:29;8.70;99.90
40848;DHT22;26570;50.962;5.340;2023-04-22T04:39:16;8.70;99.90
40848;DHT22;26570;50.962;5.340;2023-04-22T04:42:02;8.80;99.90
40848;DHT22;26570;50.962;5.340;2023-04-22T04:44:48;8.90;99.90
40848;DHT22;26570;50.962;5.340;2023-04-22T04:47:34;8.90;99.90
40848;DHT22;26570;50.962;5.340;2023-04-22T04:50:20;8.80;99.90
40848;DHT22;26570;50.962;5.340;2023-04-22T04:53:06;8.90;99.90
40848;DHT22;26570;50.962;5.340;2023-04-22T04:55:51;8.60;99.90
40848;DHT22;26570;50.962;5.340;2023-04-22T04:58:37;8.80;99.90
40848;DHT22;26570;50.962;5.340;2023-04-22T05:01:22;8.70;99.90
40848;DHT22;26570;50.962;5.340;2023-04-22T05:04:07;8.70;99.90
40848;DHT22;26570;50.962;5.340;2023-04-22T05:06:53;8.90;99.90
40848;DHT22;26570;50.962;5.340;2023-04-22T05:10:02;8.90;99.90
40848;DHT22;26570;50.962;5.340;2023-04-22T05:12:47;9.00;99.90
40848;DHT22;26570;50.962;5.340;2023-04-22T05:15:33;9.00;99.90
40848;DHT22;26570;50.962;5.340;2023-04-22T05:18:19;9.10;99.90
40848;DHT22;26570;50.962;5.340;2023-04-22T05:21:07;9.20;99.90
40848;DHT22;26570;50.962;5.340;2023-04-22T05:23:53;9.20;99.90
40848;DHT22;26570;50.962;5.340;2023-04-22T05:26:38;9.30;99.90
40848;DHT22;26570;50.962;5.340;2023-04-22T05:29:23;9.40;99.90
40848;DHT22;26570;50.962;5.340;2023-04-22T05:32:32;9.50;99.90
40848;DHT22;26570;50.962;5.340;2023-04-22T05:35:18;9.60;99.90
40848;DHT22;26570;50.962;5.340;2023-04-22T05:38:03;9.80;99.90
40848;DHT22;26570;50.962;5.340;2023-04-22T05:41:11;9.90;99.90
40848;DHT22;26570;50.962;5.340;2023-04-22T05:43:57;9.80;99.90
40848;DHT22;26570;50.962;5.340;2023-04-22T05:46:42;9.90;99.90
40848;DHT22;26570;50.962;5.340;2023-04-22T05:49:27;10.00;99.90
40848;DHT22;26570;50.962;5.340;2023-04-22T05:52:16;10.10;99.90
40848;DHT22;26570;50.962;5.340;2023-04-22T05:55:03;10.30;99.90
40848;DHT22;26570;50.962;5.340;2023-04-22T05:57:48;10.60;99.90
40848;DHT22;26570;50.962;5.340;2023-04-22T06:00:35;10.70;99.90
40848;DHT22;26570;50.962;5.340;2023-04-22T06:03:20;10.90;99.90
40848;DHT22;26570;50.962;5.340;2023-04-22T06:06:07;11.10;99.90
40848;DHT22;26570;50.962;5.340;2023-04-22T06:08:52;11.30;99.90
40848;DHT22;26570;50.962;5.340;2023-04-22T06:11:38;11.50;99.90
40848;DHT22;26570;50.962;5.340;2023-04-22T06:14:25;11.60;99.90
40848;DHT22;26570;50.962;5.340;2023-04-22T06:17:10;11.80;99.90
40848;DHT22;26570;50.962;5.340;2023-04-22T06:20:17;11.90;99.90
40848;DHT22;26570;50.962;5.340;2023-04-22T06:23:02;12.10;99.90
40848;DHT22;26570;50.962;5.340;2023-04-22T06:26:12;12.20;99.90
40848;DHT22;26570;50.962;5.340;2023-04-22T06:28:56;12.30;99.90
40848;DHT22;26570;50.962;5.340;2023-04-22T06:31:42;12.40;99.90
40848;DHT22;26570;50.962;5.340;2023-04-22T06:34:54;12.60;99.90
40848;DHT22;26570;50.962;5.340;2023-04-22T06:37:39;13.10;99.90
40848;DHT22;26570;50.962;5.340;2023-04-22T06:40:25;14.20;99.90
40848;DHT22;26570;50.962;5.340;2023-04-22T06:43:13;15.50;99.90
40848;DHT22;26570;50.962;5.340;2023-04-22T06:46:01;16.50;99.90
40848;DHT22;26570;50.962;5.340;2023-04-22T06:48:46;17.40;99.90
40848;DHT22;26570;50.962;5.340;2023-04-22T06:51:34;18.40;99.90
40848;DHT22;26570;50.962;5.340;2023-04-22T06:54:19;19.40;99.90
40848;DHT22;26570;50.962;5.340;2023-04-22T06:57:07;19.80;99.90
40848;DHT22;26570;50.962;5.340;2023-04-22T07:00:17;20.00;99.90
40848;DHT22;26570;50.962;5.340;2023-04-22T07:03:02;19.50;99.90
40848;DHT22;26570;50.962;5.340;2023-04-22T07:05:47;19.80;99.90
40848;DHT22;26570;50.962;5.340;2023-04-22T07:08:36;20.60;99.90
40848;DHT22;26570;50.962;5.340;2023-04-22T07:11:23;21.50;99.90
40848;DHT22;26570;50.962;5.340;2023-04-22T07:14:13;21.80;99.90
40848;DHT22;26570;50.962;5.340;2023-04-22T07:17:00;22.00;99.90
40848;DHT22;26570;50.962;5.340;2023-04-22T07:19:47;22.30;99.90
40848;DHT22;26570;50.962;5.340;2023-04-22T07:22:32;22.60;99.90
40848;DHT22;26570;50.962;5.340;2023-04-22T07:25:20;22.40;99.90
40848;DHT22;26570;50.962;5.340;2023-04-22T07:28:05;22.20;99.90
40848;DHT22;26570;50.962;5.340;2023-04-22T07:30:50;22.00;99.90
40848;DHT22;26570;50.962;5.340;2023-04-22T07:33:57;21.50;99.90
40848;DHT22;26570;50.962;5.340;2023-04-22T07:36:49;20.90;99.90
40848;DHT22;26570;50.962;5.340;2023-04-22T07:39:37;20.70;99.90
40848;DHT22;26570;50.962;5.340;2023-04-22T07:42:23;20.70;99.90
40848;DHT22;26570;50.962;5.340;2023-04-22T07:45:13;20.70;99.90
40848;DHT22;26570;50.962;5.340;2023-04-22T07:47:59;20.30;99.90
40848;DHT22;26570;50.962;5.340;2023-04-22T07:50:44;20.50;99.90
40848;DHT22;26570;50.962;5.340;2023-04-22T07:53:30;20.90;99.90
40848;DHT22;26570;50.962;5.340;2023-04-22T07:56:17;21.00;99.90
40848;DHT22;26570;50.962;5.340;2023-04-22T07:59:03;21.30;99.90
40848;DHT22;26570;50.962;5.340;2023-04-22T08:01:49;22.40;99.90
40848;DHT22;26570;50.962;5.340;2023-04-22T08:04:35;23.40;99.90
40848;DHT22;26570;50.962;5.340;2023-04-22T08:07:22;24.50;98.90
40848;DHT22;26570;50.962;5.340;2023-04-22T08:10:08;25.30;98.20
40848;DHT22;26570;50.962;5.340;2023-04-22T08:12:53;25.30;97.40
40848;DHT22;26570;50.962;5.340;2023-04-22T08:15:39;25.30;96.40
40848;DHT22;26570;50.962;5.340;2023-04-22T08:18:24;24.90;97.30
40848;DHT22;26570;50.962;5.340;2023-04-22T08:21:10;24.90;96.80
40848;DHT22;26570;50.962;5.340;2023-04-22T08:23:56;24.70;97.10
40848;DHT22;26570;50.962;5.340;2023-04-22T08:26:41;25.20;97.00
40848;DHT22;26570;50.962;5.340;2023-04-22T08:29:26;25.40;96.70
40848;DHT22;26570;50.962;5.340;2023-04-22T08:32:11;25.30;96.20
40848;DHT22;26570;50.962;5.340;2023-04-22T08:34:57;25.70;96.20
40848;DHT22;26570;50.962;5.340;2023-04-22T08:37:42;25.80;96.30
40848;DHT22;26570;50.962;5.340;2023-04-22T08:40:28;25.40;95.90
40848;DHT22;26570;50.962;5.340;2023-04-22T08:43:13;25.40;96.20
40848;DHT22;26570;50.962;5.340;2023-04-22T08:46:21;25.30;96.80
40848;DHT22;26570;50.962;5.340;2023-04-22T08:49:09;24.50;96.60
40848;DHT22;26570;50.962;5.340;2023-04-22T08:51:54;24.10;98.40
40848;DHT22;26570;50.962;5.340;2023-04-22T08:54:40;24.00;99.00
40848;DHT22;26570;50.962;5.340;2023-04-22T08:57:26;24.30;99.00
40848;DHT22;26570;50.962;5.340;2023-04-22T09:00:13;24.60;98.40
40848;DHT22;26570;50.962;5.340;2023-04-22T09:03:01;24.80;99.40
40848;DHT22;26570;50.962;5.340;2023-04-22T09:05:50;24.40;97.10
40848;DHT22;26570;50.962;5.340;2023-04-22T09:08:37;24.40;98.20
40848;DHT22;26570;50.962;5.340;2023-04-22T09:11:22;24.10;99.10
40848;DHT22;26570;50.962;5.340;2023-04-22T09:14:07;24.00;99.50
40848;DHT22;26570;50.962;5.340;2023-04-22T09:16:52;24.20;99.00
40848;DHT22;26570;50.962;5.340;2023-04-22T09:19:37;23.90;99.50
40848;DHT22;26570;50.962;5.340;2023-04-22T09:22:22;24.10;99.90
40848;DHT22;26570;50.962;5.340;2023-04-22T09:25:16;24.00;99.80
40848;DHT22;26570;50.962;5.340;2023-04-22T09:28:04;23.70;99.90
40848;DHT22;26570;50.962;5.340;2023-04-22T09:30:49;23.80;99.70
40848;DHT22;26570;50.962;5.340;2023-04-22T09:33:38;23.30;99.60
40848;DHT22;26570;50.962;5.340;2023-04-22T09:36:28;23.20;99.70
40848;DHT22;26570;50.962;5.340;2023-04-22T09:39:13;22.90;99.30
40848;DHT22;26570;50.962;5.340;2023-04-22T09:41:58;22.10;99.90
40848;DHT22;26570;50.962;5.340;2023-04-22T09:44:49;21.60;99.90
40848;DHT22;26570;50.962;5.340;2023-04-22T09:47:37;21.40;99.90
40848;DHT22;26570;50.962;5.340;2023-04-22T09:50:27;21.40;99.90
40848;DHT22;26570;50.962;5.340;2023-04-22T09:53:15;21.60;99.90
40848;DHT22;26570;50.962;5.340;2023-04-22T09:56:03;21.50;99.90
40848;DHT22;26570;50.962;5.340;2023-04-22T09:58:51;21.30;99.90
40848;DHT22;26570;50.962;5.340;2023-04-22T10:01:40;21.20;99.90
40848;DHT22;26570;50.962;5.340;2023-04-22T10:04:26;21.10;99.90
40848;DHT22;26570;50.962;5.340;2023-04-22T10:07:13;21.00;99.90
40848;DHT22;26570;50.962;5.340;2023-04-22T10:09:58;20.90;99.90
40848;DHT22;26570;50.962;5.340;2023-04-22T10:12:46;20.90;99.90
40848;DHT22;26570;50.962;5.340;2023-04-22T10:15:41;20.80;99.90
40848;DHT22;26570;50.962;5.340;2023-04-22T10:18:53;20.60;99.90
40848;DHT22;26570;50.962;5.340;2023-04-22T10:21:42;20.60;99.90
40848;DHT22;26570;50.962;5.340;2023-04-22T10:24:29;20.60;99.90
40848;DHT22;26570;50.962;5.340;2023-04-22T10:27:20;20.30;99.90
40848;DHT22;26570;50.962;5.340;2023-04-22T10:30:07;20.40;99.90
40848;DHT22;26570;50.962;5.340;2023-04-22T10:32:52;20.70;99.90
40848;DHT22;26570;50.962;5.340;2023-04-22T10:35:37;20.60;99.90
40848;DHT22;26570;50.962;5.340;2023-04-22T10:38:23;20.30;99.90
40848;DHT22;26570;50.962;5.340;2023-04-22T10:41:15;19.90;99.90
40848;DHT22;26570;50.962;5.340;2023-04-22T10:44:07;19.70;99.90
40848;DHT22;26570;50.962;5.340;2023-04-22T10:46:55;19.60;99.90
40848;DHT22;26570;50.962;5.340;2023-04-22T10:49:43;19.60;99.90
40848;DHT22;26570;50.962;5.340;2023-04-22T10:52:28;19.50;99.90
40848;DHT22;26570;50.962;5.340;2023-04-22T10:55:13;19.30;99.90
40848;DHT22;26570;50.962;5.340;2023-04-22T10:58:01;19.40;99.90
40848;DHT22;26570;50.962;5.340;2023-04-22T11:00:48;19.10;99.90
40848;DHT22;26570;50.962;5.340;2023-04-22T11:03:44;19.00;99.90
40848;DHT22;26570;50.962;5.340;2023-04-22T11:06:29;18.90;99.90
40848;DHT22;26570;50.962;5.340;2023-04-22T11:09:17;18.90;99.90
40848;DHT22;26570;50.962;5.340;2023-04-22T11:15:24;19.10;99.90
40848;DHT22;26570;50.962;5.340;2023-04-22T11:18:32;19.00;99.90
40848;DHT22;26570;50.962;5.340;2023-04-22T11:21:43;19.00;99.90
40848;DHT22;26570;50.962;5.340;2023-04-22T11:24:30;19.10;99.90
40848;DHT22;26570;50.962;5.340;2023-04-22T11:27:17;19.20;99.90
40848;DHT22;26570;50.962;5.340;2023-04-22T11:30:21;19.20;99.90
40848;DHT22;26570;50.962;5.340;2023-04-22T11:33:07;18.90;99.90
40848;DHT22;26570;50.962;5.340;2023-04-22T11:35:55;18.70;99.90
40848;DHT22;26570;50.962;5.340;2023-04-22T11:38:46;18.50;99.90
40848;DHT22;26570;50.962;5.340;2023-04-22T11:41:43;18.50;99.90
40848;DHT22;26570;50.962;5.340;2023-04-22T11:44:50;18.50;99.90
40848;DHT22;26570;50.962;5.340;2023-04-22T11:47:42;18.40;99.90
40848;DHT22;26570;50.962;5.340;2023-04-22T11:50:37;18.60;99.90
40848;DHT22;26570;50.962;5.340;2023-04-22T11:53:50;19.00;99.90
40848;DHT22;26570;50.962;5.340;2023-04-22T11:56:36;19.30;99.90
40848;DHT22;26570;50.962;5.340;2023-04-22T11:59:23;19.20;99.90
40848;DHT22;26570;50.962;5.340;2023-04-22T12:02:09;19.40;99.90
40848;DHT22;26570;50.962;5.340;2023-04-22T12:04:57;19.30;99.90
40848;DHT22;26570;50.962;5.340;2023-04-22T12:07:43;19.10;99.90
40848;DHT22;26570;50.962;5.340;2023-04-22T12:10:31;18.90;99.90
40848;DHT22;26570;50.962;5.340;2023-04-22T12:13:21;18.80;99.90
40848;DHT22;26570;50.962;5.340;2023-04-22T12:16:13;18.40;99.90
40848;DHT22;26570;50.962;5.340;2023-04-22T12:19:25;18.30;99.90
40848;DHT22;26570;50.962;5.340;2023-04-22T12:22:33;18.30;99.90
40848;DHT22;26570;50.962;5.340;2023-04-22T12:25:20;18.50;99.90
40848;DHT22;26570;50.962;5.340;2023-04-22T12:28:31;18.50;99.90
40848;DHT22;26570;50.962;5.340;2023-04-22T12:31:17;18.40;99.90
40848;DHT22;26570;50.962;5.340;2023-04-22T12:34:03;18.50;99.90
40848;DHT22;26570;50.962;5.340;2023-04-22T12:36:48;18.60;99.90
40848;DHT22;26570;50.962;5.340;2023-04-22T12:39:34;18.70;99.90
40848;DHT22;26570;50.962;5.340;2023-04-22T12:42:19;18.80;99.90
40848;DHT22;26570;50.962;5.340;2023-04-22T12:45:05;18.80;99.90
40848;DHT22;26570;50.962;5.340;2023-04-22T12:48:12;18.90;99.90
40848;DHT22;26570;50.962;5.340;2023-04-22T12:50:58;18.80;99.90
40848;DHT22;26570;50.962;5.340;2023-04-22T12:54:06;18.70;99.90
40848;DHT22;26570;50.962;5.340;2023-04-22T12:56:51;18.60;99.90
40848;DHT22;26570;50.962;5.340;2023-04-22T12:59:37;18.60;99.90
40848;DHT22;26570;50.962;5.340;2023-04-22T13:02:23;18.50;99.90
40848;DHT22;26570;50.962;5.340;2023-04-22T13:05:08;18.30;99.90
40848;DHT22;26570;50.962;5.340;2023-04-22T13:08:17;18.00;99.90
40848;DHT22;26570;50.962;5.340;2023-04-22T13:11:02;17.70;99.90
40848;DHT22;26570;50.962;5.340;2023-04-22T13:13:47;17.40;99.90
40848;DHT22;26570;50.962;5.340;2023-04-22T13:16:33;17.30;99.90
40848;DHT22;26570;50.962;5.340;2023-04-22T13:19:18;17.20;99.90
40848;DHT22;26570;50.962;5.340;2023-04-22T13:22:31;17.30;99.90
40848;DHT22;26570;50.962;5.340;2023-04-22T13:25:18;17.10;99.90
40848;DHT22;26570;50.962;5.340;2023-04-22T13:28:03;16.80;99.90
40848;DHT22;26570;50.962;5.340;2023-04-22T13:30:48;16.80;99.90
40848;DHT22;26570;50.962;5.340;2023-04-22T13:33:34;16.70;99.90
40848;DHT22;26570;50.962;5.340;2023-04-22T13:36:41;16.60;99.90
40848;DHT22;26570;50.962;5.340;2023-04-22T13:39:27;16.40;99.90
40848;DHT22;26570;50.962;5.340;2023-04-22T13:42:34;16.60;99.90
40848;DHT22;26570;50.962;5.340;2023-04-22T13:45:19;16.40;99.90
40848;DHT22;26570;50.962;5.340;2023-04-22T13:48:05;16.30;99.90
40848;DHT22;26570;50.962;5.340;2023-04-22T13:50:50;16.30;99.90
40848;DHT22;26570;50.962;5.340;2023-04-22T13:53:36;16.30;99.90
40848;DHT22;26570;50.962;5.340;2023-04-22T13:56:22;16.40;99.90
40848;DHT22;26570;50.962;5.340;2023-04-22T13:59:07;16.50;99.90
40848;DHT22;26570;50.962;5.340;2023-04-22T14:01:52;16.60;99.90
40848;DHT22;26570;50.962;5.340;2023-04-22T14:05:00;16.60;99.90
40848;DHT22;26570;50.962;5.340;2023-04-22T14:07:45;16.60;99.90
40848;DHT22;26570;50.962;5.340;2023-04-22T14:10:31;16.60;99.90
40848;DHT22;26570;50.962;5.340;2023-04-22T14:13:16;16.50;99.90
40848;DHT22;26570;50.962;5.340;2023-04-22T14:16:05;16.70;99.90
40848;DHT22;26570;50.962;5.340;2023-04-22T14:18:55;16.70;99.90
40848;DHT22;26570;50.962;5.340;2023-04-22T14:21:41;16.70;99.90
40848;DHT22;26570;50.962;5.340;2023-04-22T14:24:27;16.70;99.90
40848;DHT22;26570;50.962;5.340;2023-04-22T14:27:12;16.90;99.90
40848;DHT22;26570;50.962;5.340;2023-04-22T14:29:57;16.80;99.90
40848;DHT22;26570;50.962;5.340;2023-04-22T14:32:43;16.80;99.90
40848;DHT22;26570;50.962;5.340;2023-04-22T14:35:28;16.90;99.90
40848;DHT22;26570;50.962;5.340;2023-04-22T14:38:37;16.80;99.90
40848;DHT22;26570;50.962;5.340;2023-04-22T14:41:23;16.90;99.90
40848;DHT22;26570;50.962;5.340;2023-04-22T14:44:31;16.80;99.90
40848;DHT22;26570;50.962;5.340;2023-04-22T14:47:16;16.70;99.90
40848;DHT22;26570;50.962;5.340;2023-04-22T14:50:02;16.70;99.90
40848;DHT22;26570;50.962;5.340;2023-04-22T14:52:47;16.60;99.90
40848;DHT22;26570;50.962;5.340;2023-04-22T14:55:55;16.60;99.90
40848;DHT22;26570;50.962;5.340;2023-04-22T14:59:03;16.60;99.90
40848;DHT22;26570;50.962;5.340;2023-04-22T15:01:48;16.60;99.90
40848;DHT22;26570;50.962;5.340;2023-04-22T15:04:33;16.50;99.90
40848;DHT22;26570;50.962;5.340;2023-04-22T15:07:18;16.60;99.90
40848;DHT22;26570;50.962;5.340;2023-04-22T15:10:03;16.50;99.90
40848;DHT22;26570;50.962;5.340;2023-04-22T15:12:55;16.60;99.90
40848;DHT22;26570;50.962;5.340;2023-04-22T15:15:40;16.60;99.90
40848;DHT22;26570;50.962;5.340;2023-04-22T15:18:27;16.50;99.90
40848;DHT22;26570;50.962;5.340;2023-04-22T15:21:34;16.40;99.90
40848;DHT22;26570;50.962;5.340;2023-04-22T15:24:42;16.40;99.90
40848;DHT22;26570;50.962;5.340;2023-04-22T15:27:27;16.60;99.90
40848;DHT22;26570;50.962;5.340;2023-04-22T15:30:12;16.50;99.90
40848;DHT22;26570;50.962;5.340;2023-04-22T15:32:57;16.40;99.90
40848;DHT22;26570;50.962;5.340;2023-04-22T15:35:43;16.40;99.90
40848;DHT22;26570;50.962;5.340;2023-04-22T15:38:30;16.40;99.90
40848;DHT22;26570;50.962;5.340;2023-04-22T15:41:38;16.40;99.90
40848;DHT22;26570;50.962;5.340;2023-04-22T15:44:25;16.40;99.90
40848;DHT22;26570;50.962;5.340;2023-04-22T15:47:10;16.50;99.90
40848;DHT22;26570;50.962;5.340;2023-04-22T15:49:58;16.40;99.90
40848;DHT22;26570;50.962;5.340;2023-04-22T15:52:50;16.20;99.90
40848;DHT22;26570;50.962;5.340;2023-04-22T15:55:36;16.10;99.90
40848;DHT22;26570;50.962;5.340;2023-04-22T15:58:21;16.10;99.90
40848;DHT22;26570;50.962;5.340;2023-04-22T16:01:08;16.10;99.90
40848;DHT22;26570;50.962;5.340;2023-04-22T16:04:17;16.10;99.90
40848;DHT22;26570;50.962;5.340;2023-04-22T16:07:02;15.90;99.90
40848;DHT22;26570;50.962;5.340;2023-04-22T16:09:49;15.90;99.90
40848;DHT22;26570;50.962;5.340;2023-04-22T16:12:35;15.70;99.90
40848;DHT22;26570;50.962;5.340;2023-04-22T16:15:21;15.70;99.90
40848;DHT22;26570;50.962;5.340;2023-04-22T16:18:36;15.40;99.90
40848;DHT22;26570;50.962;5.340;2023-04-22T16:21:21;15.20;99.90
40848;DHT22;26570;50.962;5.340;2023-04-22T16:24:08;15.10;99.90
40848;DHT22;26570;50.962;5.340;2023-04-22T16:26:54;15.10;99.90
40848;DHT22;26570;50.962;5.340;2023-04-22T16:29:39;14.90;99.90
40848;DHT22;26570;50.962;5.340;2023-04-22T16:32:25;14.70;99.90
40848;DHT22;26570;50.962;5.340;2023-04-22T16:35:10;14.90;99.90
40848;DHT22;26570;50.962;5.340;2023-04-22T16:37:56;15.00;99.90
40848;DHT22;26570;50.962;5.340;2023-04-22T16:40:41;15.00;99.90
40848;DHT22;26570;50.962;5.340;2023-04-22T16:43:27;15.10;99.90
40848;DHT22;26570;50.962;5.340;2023-04-22T16:46:13;15.20;99.90
40848;DHT22;26570;50.962;5.340;2023-04-22T16:48:59;15.00;99.90
40848;DHT22;26570;50.962;5.340;2023-04-22T16:51:44;15.00;99.90
40848;DHT22;26570;50.962;5.340;2023-04-22T16:54:30;15.10;99.90
40848;DHT22;26570;50.962;5.340;2023-04-22T16:57:18;15.00;99.90
40848;DHT22;26570;50.962;5.340;2023-04-22T17:00:06;14.90;99.90
40848;DHT22;26570;50.962;5.340;2023-04-22T17:02:52;15.00;99.90
40848;DHT22;26570;50.962;5.340;2023-04-22T17:05:37;15.10;99.90
40848;DHT22;26570;50.962;5.340;2023-04-22T17:08:23;15.30;99.90
40848;DHT22;26570;50.962;5.340;2023-04-22T17:11:09;15.40;99.90
40848;DHT22;26570;50.962;5.340;2023-04-22T17:13:55;15.30;99.90
40848;DHT22;26570;50.962;5.340;2023-04-22T17:16:41;15.10;99.90
40848;DHT22;26570;50.962;5.340;2023-04-22T17:19:27;14.50;99.90
40848;DHT22;26570;50.962;5.340;2023-04-22T17:22:13;14.20;99.90
40848;DHT22;26570;50.962;5.340;2023-04-22T17:24:58;14.00;99.90
40848;DHT22;26570;50.962;5.340;2023-04-22T17:27:44;13.90;99.90
40848;DHT22;26570;50.962;5.340;2023-04-22T17:30:30;13.90;99.90
40848;DHT22;26570;50.962;5.340;2023-04-22T17:33:16;13.70;99.90
40848;DHT22;26570;50.962;5.340;2023-04-22T17:36:03;13.60;99.90
40848;DHT22;26570;50.962;5.340;2023-04-22T17:38:48;13.50;99.90
40848;DHT22;26570;50.962;5.340;2023-04-22T17:41:33;13.30;99.90
40848;DHT22;26570;50.962;5.340;2023-04-22T17:44:20;13.40;99.90
40848;DHT22;26570;50.962;5.340;2023-04-22T17:47:06;13.50;99.90
40848;DHT22;26570;50.962;5.340;2023-04-22T17:49:51;13.50;99.90
40848;DHT22;26570;50.962;5.340;2023-04-22T17:52:36;13.50;99.90
40848;DHT22;26570;50.962;5.340;2023-04-22T17:55:22;13.60;99.90
40848;DHT22;26570;50.962;5.340;2023-04-22T17:58:08;13.20;99.90
40848;DHT22;26570;50.962;5.340;2023-04-22T18:00:53;13.10;99.90
40848;DHT22;26570;50.962;5.340;2023-04-22T18:03:39;13.20;99.90
40848;DHT22;26570;50.962;5.340;2023-04-22T18:06:25;13.10;99.90